Time,TemperatureF,DewpointF,PressureIn,WindDirection,WindDirectionDegrees,WindSpeedMPH,WindSpeedGustMPH,Humidity,HourlyPrecipIn,Conditions,Clouds,dailyrainin,SoftwareType,DateUTC
2013-05-07 00:14:00,49.3,45.0,29.97,WSW,240,0.0,-999.0,84,-99.99,,,0.00,weatherlink.com 1.10,2013-05-07 04:14:00,
2013-05-07 00:29:00,49.0,44.0,29.97,WSW,240,0.0,-999.0,84,-99.99,,,0.00,weatherlink.com 1.10,2013-05-07 04:29:00,
2013-05-07 00:44:00,48.7,44.0,29.98,WSW,240,0.0,-999.0,84,-99.99,,,0.00,weatherlink.com 1.10,2013-05-07 04:44:00,
2013-05-07 00:59:00,48.7,44.0,29.98,WSW,242,0.0,-999.0,84,-99.99,,,0.00,weatherlink.com 1.10,2013-05-07 04:59:00,
2013-05-07 01:14:00,48.2,44.0,29.98,WSW,242,0.0,-999.0,84,-99.99,,,0.00,weatherlink.com 1.10,2013-05-07 05:14:00,
2013-05-07 01:29:00,47.7,43.0,29.97,WSW,242,0.0,-999.0,85,-99.99,,,0.00,weatherlink.com 1.10,2013-05-07 05:29:00,
2013-05-07 01:44:00,48.2,44.0,29.97,WSW,242,0.0,-999.0,85,-99.99,,,0.00,weatherlink.com 1.10,2013-05-07 05:44:00,
2013-05-07 01:59:00,48.6,44.0,29.97,WSW,242,0.0,-999.0,85,-99.99,,,0.00,weatherlink.com 1.10,2013-05-07 05:59:00,
2013-05-07 02:14:00,48.1,44.0,29.96,WSW,242,0.0,-999.0,85,-99.99,,,0.00,weatherlink.com 1.10,2013-05-07 06:14:00,
2013-05-07 02:30:00,48.0,44.0,29.95,WSW,242,0.0,-999.0,85,-99.99,,,0.00,weatherlink.com 1.10,2013-05-07 06:30:00,
2013-05-07 02:45:00,48.5,44.0,29.95,WSW,242,0.0,-999.0,85,-99.99,,,0.00,weatherlink.com 1.10,2013-05-07 06:45:00,
2013-05-07 03:00:00,48.6,44.0,29.95,WSW,242,0.0,-999.0,85,-99.99,,,0.00,weatherlink.com 1.10,2013-05-07 07:00:00,
2013-05-07 03:15:00,48.2,44.0,29.95,WSW,242,0.0,-999.0,85,-99.99,,,0.00,weatherlink.com 1.10,2013-05-07 07:15:00,
2013-05-07 03:30:00,48.6,44.0,29.95,WSW,242,0.0,-999.0,85,-99.99,,,0.00,weatherlink.com 1.10,2013-05-07 07:30:00,
2013-05-07 03:45:00,48.7,45.0,29.95,WSW,242,0.0,-999.0,86,-99.99,,,0.00,weatherlink.com 1.10,2013-05-07 07:45:00,
2013-05-07 04:00:00,48.6,44.0,29.95,WSW,242,0.0,-999.0,85,-99.99,,,0.00,weatherlink.com 1.10,2013-05-07 08:00:00,
2013-05-07 04:15:00,48.0,44.0,29.95,WSW,242,0.0,-999.0,85,-99.99,,,0.00,weatherlink.com 1.10,2013-05-07 08:15:00,
2013-05-07 04:30:00,47.7,43.0,29.95,WSW,242,0.0,-999.0,85,-99.99,,,0.00,weatherlink.com 1.10,2013-05-07 08:30:00,
2013-05-07 04:45:00,47.4,43.0,29.95,WSW,242,0.0,-999.0,85,-99.99,,,0.00,weatherlink.com 1.10,2013-05-07 08:45:00,
2013-05-07 05:00:00,47.9,44.0,29.95,WSW,242,0.0,-999.0,86,-99.99,,,0.00,weatherlink.com 1.10,2013-05-07 09:00:00,
2013-05-07 05:15:00,47.0,43.0,29.95,WSW,242,0.0,-999.0,85,-99.99,,,0.00,weatherlink.com 1.10,2013-05-07 09:15:00,
2013-05-07 05:31:00,46.8,43.0,29.95,WSW,242,0.0,-999.0,86,-99.99,,,0.00,weatherlink.com 1.10,2013-05-07 09:31:00,
2013-05-07 05:46:00,47.3,43.0,29.96,WSW,242,0.0,-999.0,86,-99.99,,,0.00,weatherlink.com 1.10,2013-05-07 09:46:00,
2013-05-07 06:01:00,47.5,44.0,29.95,WSW,242,0.0,-999.0,86,-99.99,,,0.00,weatherlink.com 1.10,2013-05-07 10:01:00,
2013-05-07 06:16:00,47.9,44.0,29.96,WSW,242,0.0,-999.0,86,-99.99,,,0.00,weatherlink.com 1.10,2013-05-07 10:16:00,
2013-05-07 06:31:00,47.6,44.0,29.96,WSW,242,0.0,-999.0,86,-99.99,,,0.00,weatherlink.com 1.10,2013-05-07 10:31:00,
2013-05-07 06:46:00,47.5,44.0,29.97,WSW,242,0.0,-999.0,86,-99.99,,,0.00,weatherlink.com 1.10,2013-05-07 10:46:00,
2013-05-07 07:01:00,47.9,44.0,29.97,WSW,242,0.0,-999.0,86,-99.99,,,0.00,weatherlink.com 1.10,2013-05-07 11:01:00,
2013-05-07 07:16:00,48.6,45.0,29.97,WSW,242,0.0,-999.0,86,-99.99,,,0.01,weatherlink.com 1.10,2013-05-07 11:16:00,
2013-05-07 07:31:00,48.7,45.0,29.97,West,273,0.0,-999.0,86,-99.99,,,0.01,weatherlink.com 1.10,2013-05-07 11:31:00,
2013-05-07 07:46:00,49.3,45.0,29.98,NNW,337,0.0,-999.0,86,-99.99,,,0.01,weatherlink.com 1.10,2013-05-07 11:46:00,
2013-05-07 08:01:00,50.1,46.0,29.98,NNW,337,0.0,-999.0,86,-99.99,,,0.01,weatherlink.com 1.10,2013-05-07 12:01:00,
2013-05-07 08:16:00,50.5,47.0,29.98,NNW,337,0.0,-999.0,86,-99.99,,,0.01,weatherlink.com 1.10,2013-05-07 12:16:00,
2013-05-07 08:32:00,51.9,48.0,29.99,NNW,338,0.0,-999.0,86,-99.99,,,0.01,weatherlink.com 1.10,2013-05-07 12:32:00,
2013-05-07 08:47:00,52.3,48.0,29.99,NW,315,0.0,-999.0,85,-99.99,,,0.01,weatherlink.com 1.10,2013-05-07 12:47:00,
2013-05-07 09:02:00,53.3,49.0,30.00,NW,321,0.0,-999.0,84,-99.99,,,0.01,weatherlink.com 1.10,2013-05-07 13:02:00,
2013-05-07 09:17:00,54.4,50.0,30.00,NNW,342,0.0,-999.0,84,-99.99,,,0.01,weatherlink.com 1.10,2013-05-07 13:17:00,
2013-05-07 09:32:00,54.9,50.0,30.00,NNE,13,1.0,-999.0,83,-99.99,,,0.01,weatherlink.com 1.10,2013-05-07 13:32:00,
2013-05-07 09:47:00,55.9,50.0,30.00,NNW,336,0.0,-999.0,81,-99.99,,,0.01,weatherlink.com 1.10,2013-05-07 13:47:00,
2013-05-07 10:02:00,56.7,50.0,30.00,NNW,332,4.0,-999.0,78,-99.99,,,0.01,weatherlink.com 1.10,2013-05-07 14:02:00,
2013-05-07 10:17:00,56.1,50.0,30.00,NNW,341,1.0,-999.0,79,-99.99,,,0.01,weatherlink.com 1.10,2013-05-07 14:17:00,
2013-05-07 10:32:00,57.7,51.0,30.01,West,268,0.0,-999.0,77,-99.99,,,0.01,weatherlink.com 1.10,2013-05-07 14:32:00,
2013-05-07 10:48:00,58.8,51.0,30.01,WNW,288,0.0,-999.0,74,-99.99,,,0.01,weatherlink.com 1.10,2013-05-07 14:48:00,
2013-05-07 11:03:00,59.8,52.0,30.00,NW,325,0.0,-999.0,74,-99.99,,,0.01,weatherlink.com 1.10,2013-05-07 15:03:00,
2013-05-07 11:18:00,61.4,52.0,30.00,WSW,250,0.0,-999.0,72,-99.99,,,0.01,weatherlink.com 1.10,2013-05-07 15:18:00,
2013-05-07 11:33:00,63.0,53.0,30.00,SE,143,0.0,-999.0,69,-99.99,,,0.01,weatherlink.com 1.10,2013-05-07 15:33:00,
2013-05-07 11:48:00,64.8,50.0,29.99,NE,52,0.0,-999.0,60,-99.99,,,0.01,weatherlink.com 1.10,2013-05-07 15:48:00,
2013-05-07 12:03:00,64.5,51.0,29.98,NNE,23,0.0,-999.0,61,-99.99,,,0.01,weatherlink.com 1.10,2013-05-07 16:03:00,
2013-05-07 12:18:00,65.7,49.0,29.97,SE,134,1.0,-999.0,55,-99.99,,,0.01,weatherlink.com 1.10,2013-05-07 16:18:00,
2013-05-07 12:33:00,64.0,50.0,29.97,South,169,0.0,-999.0,61,-99.99,,,0.01,weatherlink.com 1.10,2013-05-07 16:33:00,
2013-05-07 12:48:00,65.7,51.0,29.97,SW,234,0.0,-999.0,60,-99.99,,,0.01,weatherlink.com 1.10,2013-05-07 16:48:00,
2013-05-07 13:03:00,66.6,49.0,29.96,WNW,296,0.0,-999.0,54,-99.99,,,0.01,weatherlink.com 1.10,2013-05-07 17:03:00,
2013-05-07 13:19:00,66.4,47.0,29.96,ENE,70,0.0,-999.0,50,-99.99,,,0.01,weatherlink.com 1.10,2013-05-07 17:19:00,
2013-05-07 13:34:00,68.4,50.0,29.96,ESE,122,1.0,-999.0,52,-99.99,,,0.01,weatherlink.com 1.10,2013-05-07 17:34:00,
2013-05-07 13:49:00,66.5,49.0,29.95,NNE,32,0.0,-999.0,54,-99.99,,,0.01,weatherlink.com 1.10,2013-05-07 17:49:00,
2013-05-07 14:04:00,70.0,48.0,29.95,SE,128,0.0,-999.0,45,-99.99,,,0.01,weatherlink.com 1.10,2013-05-07 18:04:00,
2013-05-07 14:19:00,67.1,47.0,29.95,NNW,338,0.0,-999.0,49,-99.99,,,0.01,weatherlink.com 1.10,2013-05-07 18:19:00,
2013-05-07 14:34:00,66.7,49.0,29.94,SE,138,0.0,-999.0,53,-99.99,,,0.01,weatherlink.com 1.10,2013-05-07 18:34:00,
2013-05-07 14:49:00,69.3,48.0,29.94,NNE,19,1.0,-999.0,46,-99.99,,,0.01,weatherlink.com 1.10,2013-05-07 18:49:00,
2013-05-07 15:04:00,66.6,48.0,29.93,West,263,0.0,-999.0,51,-99.99,,,0.01,weatherlink.com 1.10,2013-05-07 19:04:00,
2013-05-07 15:19:00,65.7,48.0,29.93,East,85,0.0,-999.0,54,-99.99,,,0.01,weatherlink.com 1.10,2013-05-07 19:19:00,
2013-05-07 15:34:00,68.8,46.0,29.93,NW,322,2.0,-999.0,44,-99.99,,,0.01,weatherlink.com 1.10,2013-05-07 19:34:00,
2013-05-07 15:49:00,64.7,47.0,29.93,WNW,295,0.0,-999.0,54,-99.99,,,0.01,weatherlink.com 1.10,2013-05-07 19:49:00,
2013-05-07 16:05:00,63.4,47.0,29.95,West,276,2.0,-999.0,56,-99.99,,,0.01,weatherlink.com 1.10,2013-05-07 20:05:00,
2013-05-07 16:20:00,59.7,50.0,29.97,NNW,338,2.0,-999.0,71,-99.99,,,0.03,weatherlink.com 1.10,2013-05-07 20:20:00,
2013-05-07 16:35:00,55.5,48.0,29.98,WNW,292,0.0,-999.0,77,-99.99,,,0.22,weatherlink.com 1.10,2013-05-07 20:35:00,
2013-05-07 16:50:00,55.1,49.0,29.98,NE,42,0.0,-999.0,81,-99.99,,,0.28,weatherlink.com 1.10,2013-05-07 20:50:00,
2013-05-07 17:05:00,54.1,48.0,29.97,NE,42,0.0,-999.0,81,-99.99,,,0.30,weatherlink.com 1.10,2013-05-07 21:05:00,
2013-05-07 17:20:00,53.5,49.0,29.98,East,84,0.0,-999.0,83,-99.99,,,0.33,weatherlink.com 1.10,2013-05-07 21:20:00,
2013-05-07 17:35:00,53.9,49.0,29.98,East,93,0.0,-999.0,83,-99.99,,,0.33,weatherlink.com 1.10,2013-05-07 21:35:00,
2013-05-07 17:50:00,54.0,49.0,29.99,SE,127,0.0,-999.0,83,-99.99,,,0.33,weatherlink.com 1.10,2013-05-07 21:50:00,
2013-05-07 18:05:00,54.1,49.0,29.99,SE,138,0.0,-999.0,84,-99.99,,,0.33,weatherlink.com 1.10,2013-05-07 22:05:00,
2013-05-07 18:20:00,54.7,50.0,30.00,SE,144,0.0,-999.0,84,-99.99,,,0.34,weatherlink.com 1.10,2013-05-07 22:20:00,
2013-05-07 18:35:00,54.4,50.0,30.00,SE,142,0.0,-999.0,84,-99.99,,,0.34,weatherlink.com 1.10,2013-05-07 22:35:00,
2013-05-07 18:50:00,54.2,50.0,29.99,SE,144,0.0,-999.0,85,-99.99,,,0.34,weatherlink.com 1.10,2013-05-07 22:50:00,
2013-05-07 19:05:00,55.2,51.0,29.99,SE,134,0.0,-999.0,85,-99.99,,,0.34,weatherlink.com 1.10,2013-05-07 23:05:00,
2013-05-07 19:20:00,54.8,50.0,30.00,ESE,121,0.0,-999.0,85,-99.99,,,0.35,weatherlink.com 1.10,2013-05-07 23:20:00,
2013-05-07 19:36:00,54.8,50.0,30.00,SSE,149,0.0,-999.0,85,-99.99,,,0.36,weatherlink.com 1.10,2013-05-07 23:36:00,
2013-05-07 19:51:00,54.8,50.0,30.00,SSE,148,0.0,-999.0,85,-99.99,,,0.36,weatherlink.com 1.10,2013-05-07 23:51:00,
2013-05-07 20:06:00,54.5,50.0,30.01,SE,126,0.0,-999.0,85,-99.99,,,0.36,weatherlink.com 1.10,2013-05-08 00:06:00,
2013-05-07 20:21:00,54.4,50.0,30.01,SSW,208,0.0,-999.0,85,-99.99,,,0.37,weatherlink.com 1.10,2013-05-08 00:21:00,
2013-05-07 20:36:00,54.0,49.0,30.00,South,182,0.0,-999.0,84,-99.99,,,0.38,weatherlink.com 1.10,2013-05-08 00:36:00,
2013-05-07 20:51:00,53.6,49.0,30.00,South,182,0.0,-999.0,85,-99.99,,,0.38,weatherlink.com 1.10,2013-05-08 00:51:00,
2013-05-07 21:06:00,53.3,49.0,30.00,South,182,0.0,-999.0,85,-99.99,,,0.39,weatherlink.com 1.10,2013-05-08 01:06:00,
2013-05-07 21:21:00,53.1,49.0,30.00,South,182,0.0,-999.0,85,-99.99,,,0.39,weatherlink.com 1.10,2013-05-08 01:21:00,
2013-05-07 21:36:00,53.1,49.0,30.01,South,182,0.0,-999.0,85,-99.99,,,0.39,weatherlink.com 1.10,2013-05-08 01:36:00,
2013-05-07 21:51:00,53.2,49.0,30.01,South,182,0.0,-999.0,86,-99.99,,,0.39,weatherlink.com 1.10,2013-05-08 01:51:00,
2013-05-07 22:06:00,53.2,49.0,30.01,South,182,0.0,-999.0,86,-99.99,,,0.39,weatherlink.com 1.10,2013-05-08 02:06:00,
2013-05-07 22:21:00,53.2,49.0,30.02,South,182,0.0,-999.0,86,-99.99,,,0.39,weatherlink.com 1.10,2013-05-08 02:21:00,
2013-05-07 22:36:00,53.0,49.0,30.02,South,182,0.0,-999.0,86,-99.99,,,0.39,weatherlink.com 1.10,2013-05-08 02:36:00,
2013-05-07 22:52:00,53.1,49.0,30.03,South,182,0.0,-999.0,86,-99.99,,,0.39,weatherlink.com 1.10,2013-05-08 02:52:00,
2013-05-07 23:07:00,53.3,49.0,30.03,South,182,0.0,-999.0,86,-99.99,,,0.39,weatherlink.com 1.10,2013-05-08 03:07:00,
2013-05-07 23:22:00,53.1,49.0,30.03,South,182,0.0,-999.0,86,-99.99,,,0.39,weatherlink.com 1.10,2013-05-08 03:22:00,
2013-05-07 23:37:00,53.0,49.0,30.04,South,182,0.0,-999.0,86,-99.99,,,0.39,weatherlink.com 1.10,2013-05-08 03:37:00,
2013-05-07 23:52:00,53.1,49.0,30.04,South,182,0.0,-999.0,86,-99.99,,,0.39,weatherlink.com 1.10,2013-05-08 03:52:00,